Terminal Aerodrome Forecast
Issued by NWS Blacksburg, VA

Home | Current Version | Previous Version | Text Only | Print | Product List | Glossary On
Versions: 1 2 3 4 5 6 7 8 9 10 11 12 13 14 15 16 17 18 19 20
000
FTUS41 KRNK 270652 AAA
TAFROA
TAF AMD
KROA 270652Z 2707/2806 00000KT P6SM BKN008 OVC015
      TEMPO 2707/2709 3SM -SHRA BR OVC015
     FM271100 VRB02KT 2SM BR OVC015
      TEMPO 2711/2712 1SM -SHRA BR OVC005
     FM271200 32005KT P6SM VCSH OVC015
     FM271600 30005KT P6SM BKN040=

USA.gov is the U.S. government's official web portal to all federal, state and local government web resources and services.